Time;durP1;ratioP1;P1;durP2;ratioP2;P2;SDS_P1;SDS_P2;PMS_P1;PMS_P2;Temp;Humidity;BMP_temperature;BMP_pressure;BME280_temperature;BME280_humidity;BME280_pressure;Samples;Min_cycle;Max_cycle;Signal;HPM_P1;HPM_P2
2022/10/01 04:01:52;;;;;;;1.98;1.98;;;10.40;99.90;;;;;;6227085;22;20207;-70
2022/10/01 04:04:19;;;;;;;2.00;1.90;;;10.50;99.90;;;;;;6242579;23;20540;-70
2022/10/01 04:06:46;;;;;;;2.10;2.00;;;10.50;99.90;;;;;;6243324;23;20263;-70
2022/10/01 04:09:13;;;;;;;2.05;2.00;;;10.60;99.90;;;;;;6242676;23;20514;-69
2022/10/01 04:11:40;;;;;;;1.70;1.55;;;10.60;99.90;;;;;;6240909;22;20211;-69
2022/10/01 04:14:07;;;;;;;1.67;1.40;;;10.60;99.90;;;;;;6241996;23;20196;-70
2022/10/01 04:16:34;;;;;;;0.98;0.98;;;10.70;99.90;;;;;;6242331;23;20246;-70
2022/10/01 04:19:03;;;;;;;1.42;1.30;;;10.70;99.90;;;;;;6242490;23;20180;-68
2022/10/01 04:21:30;;;;;;;1.20;1.20;;;10.70;99.90;;;;;;6242586;22;20507;-71
2022/10/01 04:23:57;;;;;;;0.82;0.82;;;10.70;99.90;;;;;;6240285;23;20180;-71
2022/10/01 04:26:24;;;;;;;1.40;1.40;;;10.60;99.90;;;;;;6242849;23;20186;-70
2022/10/01 04:28:50;;;;;;;1.48;1.38;;;10.60;99.90;;;;;;6241668;23;20180;-69
2022/10/01 04:31:26;;;;;;;1.50;1.50;;;10.60;99.90;;;;;;6242224;22;20211;-68
2022/10/01 04:33:54;;;;;;;2.35;1.05;;;10.50;99.90;;;;;;6241151;23;20524;-69
2022/10/01 04:36:23;;;;;;;1.52;1.30;;;10.50;99.90;;;;;;6241473;23;20185;-69
2022/10/01 04:38:51;;;;;;;1.85;1.85;;;10.40;99.90;;;;;;6242172;23;20246;-70
2022/10/01 04:41:19;;;;;;;1.35;1.35;;;10.40;99.90;;;;;;6241773;22;20200;-70
2022/10/01 04:43:46;;;;;;;1.00;1.00;;;10.30;99.90;;;;;;6242137;23;20174;-69
2022/10/01 04:46:13;;;;;;;1.30;1.20;;;10.30;99.90;;;;;;6241906;23;20178;-69
2022/10/01 04:48:40;;;;;;;3.53;1.45;;;10.20;99.90;;;;;;6242078;23;20188;-69
2022/10/01 04:51:06;;;;;;;2.22;2.13;;;10.20;99.90;;;;;;6242236;22;20591;-69
2022/10/01 04:53:34;;;;;;;1.35;1.35;;;10.20;99.90;;;;;;6240701;23;20200;-70
2022/10/01 04:56:01;;;;;;;1.67;1.35;;;10.20;99.90;;;;;;6242086;23;20646;-70
2022/10/01 04:58:29;;;;;;;1.67;1.60;;;10.20;99.90;;;;;;6242109;23;20184;-70
2022/10/01 05:00:55;;;;;;;1.65;1.65;;;10.20;99.90;;;;;;6241542;22;20559;-70
2022/10/01 05:03:22;;;;;;;0.77;0.77;;;10.10;99.90;;;;;;6241416;23;20651;-71
2022/10/01 05:05:49;;;;;;;2.10;2.03;;;10.10;99.90;;;;;;6241074;23;20181;-71
2022/10/01 05:08:15;;;;;;;1.70;1.70;;;10.00;99.90;;;;;;6242147;23;20173;-71
2022/10/01 05:10:43;;;;;;;1.30;0.90;;;10.00;99.90;;;;;;6240719;22;20209;-71
2022/10/01 05:13:11;;;;;;;1.90;1.80;;;9.90;99.90;;;;;;6241404;23;20198;-70
2022/10/01 05:15:37;;;;;;;1.88;1.77;;;9.90;99.90;;;;;;6251279;23;20177;-70
2022/10/01 05:18:04;;;;;;;1.52;1.38;;;9.90;99.90;;;;;;6241404;23;20188;-70
2022/10/01 05:20:32;;;;;;;1.55;1.55;;;9.80;99.90;;;;;;6241875;22;20200;-71
2022/10/01 05:22:59;;;;;;;1.65;1.60;;;9.80;99.90;;;;;;6241903;23;20186;-71
2022/10/01 05:25:26;;;;;;;1.42;1.40;;;9.80;99.90;;;;;;6241378;23;20515;-69
2022/10/01 05:28:04;;;;;;;2.00;1.90;;;9.80;99.90;;;;;;6242518;23;20251;-69
2022/10/01 05:30:32;;;;;;;0.65;0.65;;;9.70;99.90;;;;;;6241614;22;20220;-70
2022/10/01 05:33:00;;;;;;;1.17;1.08;;;9.70;99.90;;;;;;6240864;23;20207;-70
2022/10/01 05:35:28;;;;;;;2.85;2.00;;;9.60;99.90;;;;;;6242085;23;20181;-70
2022/10/01 05:37:56;;;;;;;1.85;1.85;;;9.60;99.90;;;;;;6241975;23;20184;-70
2022/10/01 05:40:24;;;;;;;1.20;1.20;;;9.60;99.90;;;;;;6241596;22;20182;-70
2022/10/01 05:42:51;;;;;;;4.55;1.80;;;9.60;99.90;;;;;;6240582;23;20180;-71
2022/10/01 05:45:21;;;;;;;0.98;0.98;;;9.60;99.90;;;;;;6238524;23;20668;-70
2022/10/01 05:47:48;;;;;;;1.98;1.88;;;9.60;99.90;;;;;;6240958;23;20172;-71
2022/10/01 05:50:15;;;;;;;1.90;1.90;;;9.70;99.90;;;;;;6241834;22;20180;-69
2022/10/01 05:52:48;;;;;;;1.60;1.60;;;9.70;99.90;;;;;;6240946;23;20206;-71
2022/10/01 05:55:15;;;;;;;1.98;1.88;;;9.70;99.90;;;;;;6241929;23;20544;-70
2022/10/01 05:57:42;;;;;;;2.10;2.00;;;9.70;99.90;;;;;;6241412;23;20207;-71
2022/10/01 06:00:09;;;;;;;1.73;1.73;;;9.80;99.90;;;;;;6240110;23;20198;-71
2022/10/01 06:02:37;;;;;;;7.43;2.92;;;9.80;99.90;;;;;;6240361;23;20264;-71
2022/10/01 06:05:05;;;;;;;1.63;1.40;;;9.80;99.90;;;;;;6239946;23;20674;-72
2022/10/01 06:07:31;;;;;;;2.33;2.22;;;9.80;99.90;;;;;;6241887;23;20184;-70
2022/10/01 06:09:58;;;;;;;2.22;2.22;;;9.90;99.90;;;;;;6240526;23;20190;-70
2022/10/01 06:12:25;;;;;;;1.35;1.35;;;9.90;99.90;;;;;;6240759;22;20210;-70
2022/10/01 06:14:52;;;;;;;1.55;1.55;;;9.90;99.90;;;;;;6240485;23;20188;-71
2022/10/01 06:17:18;;;;;;;1.85;1.75;;;9.90;99.90;;;;;;6242033;23;20206;-69
2022/10/01 06:19:46;;;;;;;6.97;2.47;;;9.90;99.90;;;;;;6243472;23;20180;-69
2022/10/01 06:22:13;;;;;;;2.72;2.63;;;9.80;99.90;;;;;;6242894;22;20208;-68
2022/10/01 06:24:40;;;;;;;3.92;2.90;;;9.90;99.90;;;;;;6243520;23;20512;-68
2022/10/01 06:27:07;;;;;;;2.05;1.95;;;9.90;99.90;;;;;;6242407;23;20635;-69
2022/10/01 06:29:33;;;;;;;2.72;2.72;;;9.90;99.90;;;;;;6243542;23;20230;-69
2022/10/01 06:32:01;;;;;;;2.00;2.00;;;9.90;99.90;;;;;;6242796;22;20277;-68
2022/10/01 06:34:27;;;;;;;2.25;2.15;;;9.90;99.90;;;;;;6242899;23;20495;-69
2022/10/01 06:36:55;;;;;;;2.42;2.22;;;9.90;99.90;;;;;;6243201;23;20187;-69
2022/10/01 06:39:22;;;;;;;5.78;2.20;;;10.00;99.90;;;;;;6244078;23;20520;-69
2022/10/01 06:41:49;;;;;;;4.40;2.00;;;10.00;99.90;;;;;;6243170;22;20200;-68
2022/10/01 06:44:16;;;;;;;2.42;2.30;;;10.00;99.90;;;;;;6243610;23;20605;-69
2022/10/01 06:46:43;;;;;;;2.05;1.95;;;10.00;99.90;;;;;;6242968;23;20185;-69
2022/10/01 06:49:09;;;;;;;3.28;3.08;;;10.00;99.90;;;;;;6241648;23;20179;-69
2022/10/01 06:54:22;;;;;;;2.65;1.80;;;10.00;99.90;;;;;;6243046;23;20518;-69
2022/10/01 06:56:48;;;;;;;2.67;2.58;;;10.10;99.90;;;;;;6243072;23;20182;-69
2022/10/01 06:59:15;;;;;;;1.20;1.20;;;10.00;99.90;;;;;;6243591;23;20211;-68
2022/10/01 07:01:42;;;;;;;1.52;1.40;;;10.10;99.90;;;;;;6242459;22;20208;-68
2022/10/01 07:04:08;;;;;;;1.95;1.95;;;10.10;99.90;;;;;;6242420;23;20184;-69
2022/10/01 07:06:35;;;;;;;16.23;2.45;;;10.10;99.90;;;;;;6241719;23;20189;-68
2022/10/01 07:09:02;;;;;;;1.42;1.42;;;10.10;99.90;;;;;;6242948;23;20184;-69
2022/10/01 07:11:30;;;;;;;2.55;2.45;;;10.10;99.90;;;;;;6242471;22;20534;-68
2022/10/01 07:13:57;;;;;;;2.00;1.92;;;10.10;99.90;;;;;;6242966;23;20199;-70
2022/10/01 07:16:24;;;;;;;1.90;1.83;;;10.10;99.90;;;;;;6241557;23;20183;-73
2022/10/01 07:18:52;;;;;;;1.38;1.38;;;10.10;99.90;;;;;;6241881;23;20634;-70
2022/10/01 07:21:18;;;;;;;2.65;2.42;;;10.10;99.90;;;;;;6242816;22;20226;-70
2022/10/01 07:23:45;;;;;;;2.20;2.10;;;10.10;99.90;;;;;;6243585;23;20176;-68
2022/10/01 07:26:12;;;;;;;2.97;2.30;;;10.10;99.90;;;;;;6242699;23;20191;-70
2022/10/01 07:28:40;;;;;;;1.25;1.15;;;10.10;99.90;;;;;;6245240;23;20184;-71
2022/10/01 07:31:10;;;;;;;1.70;1.60;;;10.10;99.90;;;;;;6254590;22;20274;-71
2022/10/01 07:33:36;;;;;;;1.95;1.90;;;10.10;99.90;;;;;;6242595;23;20195;-71
2022/10/01 07:36:05;;;;;;;2.20;2.10;;;10.10;99.90;;;;;;6243612;23;20192;-70
2022/10/01 07:38:33;;;;;;;2.05;2.03;;;10.20;99.90;;;;;;6242250;23;20673;-72
2022/10/01 07:41:01;;;;;;;2.15;1.73;;;10.20;99.90;;;;;;6243617;22;20202;-73
2022/10/01 07:43:28;;;;;;;2.25;1.02;;;10.30;99.90;;;;;;6242468;23;20180;-71
2022/10/01 07:45:56;;;;;;;2.03;1.92;;;10.30;99.90;;;;;;6242506;23;20187;-70
2022/10/01 07:48:24;;;;;;;1.48;1.48;;;10.30;99.90;;;;;;6242343;23;20188;-72
2022/10/01 07:50:51;;;;;;;1.85;1.75;;;10.30;99.90;;;;;;6242616;22;20211;-70
2022/10/01 07:53:18;;;;;;;1.80;1.80;;;10.40;99.90;;;;;;6241334;23;20282;-71
2022/10/01 07:55:45;;;;;;;0.95;0.85;;;10.30;99.90;;;;;;6242890;23;20496;-73
2022/10/01 07:58:13;;;;;;;1.88;1.77;;;10.40;99.90;;;;;;6242742;23;20190;-69
2022/10/01 08:00:40;;;;;;;2.40;2.30;;;10.40;99.90;;;;;;6241536;22;20543;-70
2022/10/01 08:03:10;;;;;;;2.00;1.65;;;10.50;99.90;;;;;;6242073;23;20176;-69
2022/10/01 08:05:39;;;;;;;1.30;1.30;;;10.50;99.90;;;;;;6243070;23;20226;-71
2022/10/01 08:08:07;;;;;;;2.00;2.00;;;10.60;99.90;;;;;;6241660;23;20185;-70
2022/10/01 08:10:35;;;;;;;21.10;9.52;;;10.60;99.90;;;;;;6241500;22;20233;-71
2022/10/01 08:13:07;;;;;;;4.50;4.30;;;10.60;99.90;;;;;;6241899;23;20211;-68
2022/10/01 08:15:34;;;;;;;1.88;1.88;;;10.60;99.90;;;;;;6242190;23;20173;-73
2022/10/01 08:18:01;;;;;;;3.40;3.17;;;10.70;99.90;;;;;;6241958;23;20225;-70
2022/10/01 08:20:30;;;;;;;5.25;4.85;;;10.70;99.90;;;;;;6243811;22;20188;-70
2022/10/01 08:23:01;;;;;;;5.60;4.35;;;10.60;99.90;;;;;;6244532;23;20181;-71
2022/10/01 08:25:28;;;;;;;14.85;7.55;;;10.70;99.90;;;;;;6244982;23;20191;-70
2022/10/01 08:27:55;;;;;;;9.88;6.20;;;10.30;99.90;;;;;;6244566;23;20214;-70
2022/10/01 08:30:22;;;;;;;2.72;2.63;;;10.70;99.90;;;;;;6246737;22;20180;-71
2022/10/01 08:32:48;;;;;;;5.18;3.58;;;10.70;99.90;;;;;;6247986;23;20268;-69
2022/10/01 08:35:15;;;;;;;7.60;5.22;;;10.60;99.90;;;;;;6244517;23;20183;-70
2022/10/01 08:37:44;;;;;;;4.80;3.70;;;10.60;99.90;;;;;;6255409;23;20481;-71
2022/10/01 08:40:10;;;;;;;4.22;3.03;;;10.60;99.90;;;;;;6244648;23;20265;-70
2022/10/01 08:42:48;;;;;;;3.15;2.55;;;10.60;99.90;;;;;;6242243;23;20210;-69
2022/10/01 08:45:22;;;;;;;2.60;2.50;;;10.60;99.90;;;;;;6244996;23;20191;-70
2022/10/01 08:47:55;;;;;;;3.15;2.95;;;10.60;99.90;;;;;;6255248;23;20606;-71
2022/10/01 08:50:34;;;;;;;1.10;1.05;;;10.60;99.90;;;;;;6258259;22;20169;-70
2022/10/01 08:53:06;;;;;;;1.95;1.85;;;10.60;99.90;;;;;;6257114;23;20169;-71
2022/10/01 08:55:36;;;;;;;1.92;1.90;;;10.60;99.90;;;;;;6250744;23;20308;-70
2022/10/01 08:58:05;;;;;;;2.05;1.95;;;10.60;99.90;;;;;;6243262;23;20207;-69
2022/10/01 09:00:34;;;;;;;3.80;2.95;;;10.60;99.90;;;;;;6241245;22;20203;-69
2022/10/01 09:03:05;;;;;;;2.42;2.33;;;10.60;99.90;;;;;;6241262;23;20168;-72
2022/10/01 09:05:39;;;;;;;4.13;3.88;;;10.60;99.90;;;;;;6242056;23;20168;-69
2022/10/01 09:08:20;;;;;;;3.45;3.15;;;10.70;99.90;;;;;;6241708;23;20177;-69
2022/10/01 09:10:50;;;;;;;2.05;2.00;;;10.70;99.90;;;;;;6240748;22;20197;-71
2022/10/01 09:13:46;;;;;;;3.38;3.17;;;10.70;99.90;;;;;;6240978;23;20284;-69
2022/10/01 09:16:20;;;;;;;7.43;5.63;;;10.70;99.90;;;;;;6237209;23;20565;-74
2022/10/01 09:19:01;;;;;;;2.90;2.65;;;10.70;99.90;;;;;;6242194;23;20164;-69
2022/10/01 09:21:40;;;;;;;2.47;2.38;;;10.80;99.90;;;;;;6241407;22;20205;-69
2022/10/01 09:24:14;;;;;;;1.48;1.48;;;10.80;99.90;;;;;;6241163;23;20158;-68
2022/10/01 09:26:44;;;;;;;3.70;3.40;;;10.80;99.90;;;;;;6241682;23;20549;-71
2022/10/01 09:29:15;;;;;;;2.47;2.38;;;10.80;99.90;;;;;;6240759;23;20239;-70
2022/10/01 09:31:46;;;;;;;2.15;2.05;;;10.80;99.90;;;;;;6240949;22;20293;-69
2022/10/01 09:34:15;;;;;;;1.88;1.88;;;10.80;99.90;;;;;;6241301;23;20260;-69
2022/10/01 09:36:50;;;;;;;1.20;1.20;;;10.90;99.90;;;;;;6240631;23;20423;-70
2022/10/01 09:39:25;;;;;;;1.80;1.80;;;10.90;99.90;;;;;;6241040;23;20163;-68
2022/10/01 09:41:52;;;;;;;1.80;1.73;;;11.00;99.90;;;;;;6241080;22;20486;-69
2022/10/01 09:44:26;;;;;;;1.73;1.67;;;11.00;99.90;;;;;;6241894;23;20179;-69
2022/10/01 09:46:54;;;;;;;1.02;1.00;;;11.00;99.90;;;;;;6241326;23;20256;-70
2022/10/01 09:49:29;;;;;;;1.52;1.42;;;11.00;99.90;;;;;;6242062;23;20180;-70
2022/10/01 09:52:01;;;;;;;0.90;0.90;;;11.00;99.90;;;;;;6241482;22;20235;-70
2022/10/01 09:54:34;;;;;;;1.52;1.48;;;11.10;99.90;;;;;;6244023;23;20233;-72
2022/10/01 09:57:06;;;;;;;1.17;1.17;;;11.10;99.90;;;;;;6242464;23;20236;-70
2022/10/01 09:59:37;;;;;;;1.92;1.50;;;11.20;99.90;;;;;;6242372;23;20547;-69
2022/10/01 10:02:13;;;;;;;1.00;1.00;;;11.20;99.90;;;;;;6241803;22;20222;-69
2022/10/01 10:04:40;;;;;;;1.55;1.55;;;11.30;99.90;;;;;;6243284;23;20168;-71
2022/10/01 10:07:07;;;;;;;1.30;1.30;;;11.30;99.90;;;;;;6243407;23;20195;-69
2022/10/01 10:09:36;;;;;;;1.42;1.40;;;11.40;99.90;;;;;;6244075;23;20189;-73
2022/10/01 10:12:08;;;;;;;1.50;1.50;;;11.50;99.90;;;;;;6243839;22;20470;-70
2022/10/01 10:14:39;;;;;;;3.03;2.05;;;11.50;99.90;;;;;;6243185;23;20317;-69
2022/10/01 10:17:11;;;;;;;0.90;0.90;;;11.50;99.90;;;;;;6244175;23;20218;-70
2022/10/01 10:19:38;;;;;;;1.70;1.70;;;11.50;99.90;;;;;;6241632;23;20176;-70
2022/10/01 10:22:13;;;;;;;2.28;2.17;;;11.50;99.90;;;;;;6244062;22;20292;-70
2022/10/01 10:24:41;;;;;;;1.50;1.40;;;11.60;99.90;;;;;;6241703;23;20504;-70
2022/10/01 10:27:24;;;;;;;1.17;1.17;;;11.60;99.90;;;;;;6243127;23;20233;-70
2022/10/01 10:30:02;;;;;;;1.20;1.20;;;11.60;99.90;;;;;;6241962;23;20171;-70
2022/10/01 10:32:29;;;;;;;1.20;1.20;;;11.70;99.90;;;;;;6242512;22;20722;-69
2022/10/01 10:35:00;;;;;;;2.08;1.98;;;11.70;99.90;;;;;;6243272;23;20198;-70
2022/10/01 10:37:29;;;;;;;1.73;1.70;;;11.80;99.90;;;;;;6242687;23;20210;-70
2022/10/01 10:39:58;;;;;;;11.90;8.70;;;11.80;99.90;;;;;;6244138;23;20245;-70
2022/10/01 10:42:26;;;;;;;3.20;2.17;;;11.90;99.90;;;;;;6243376;22;20295;-70
2022/10/01 10:44:55;;;;;;;26.23;14.30;;;12.00;99.90;;;;;;6243752;23;20207;-69
2022/10/01 10:47:23;;;;;;;6.20;4.27;;;12.10;99.90;;;;;;6242893;23;20426;-70
2022/10/01 10:49:54;;;;;;;7.20;6.53;;;12.30;99.90;;;;;;6243139;23;20422;-70
2022/10/01 10:52:28;;;;;;;2.70;2.50;;;12.40;99.90;;;;;;6240801;22;20905;-70
2022/10/01 10:54:56;;;;;;;1.63;1.63;;;12.40;99.90;;;;;;6242643;23;20959;-68
2022/10/01 10:57:26;;;;;;;3.23;3.00;;;12.50;99.90;;;;;;6243743;23;20746;-68
2022/10/01 10:59:59;;;;;;;2.00;1.90;;;12.60;99.90;;;;;;6243212;23;20433;-69
2022/10/01 11:02:28;;;;;;;1.80;1.80;;;12.70;99.90;;;;;;6243354;22;20515;-67
2022/10/01 11:04:57;;;;;;;1.70;1.63;;;12.80;99.90;;;;;;6242118;23;20855;-67
2022/10/01 11:07:26;;;;;;;1.20;1.20;;;12.80;99.90;;;;;;6241185;23;20433;-68
2022/10/01 11:10:11;;;;;;;2.50;2.40;;;12.90;99.90;;;;;;6243585;23;20486;-68
2022/10/01 11:12:55;;;;;;;6.30;1.80;;;13.00;99.90;;;;;;6242367;23;20447;-68
2022/10/01 11:15:40;;;;;;;3.50;2.20;;;13.10;99.90;;;;;;6243142;23;20453;-69
2022/10/01 11:18:32;;;;;;;1.73;1.73;;;13.10;99.90;;;;;;6243080;23;20486;-69
2022/10/01 11:21:14;;;;;;;2.07;2.07;;;13.20;99.90;;;;;;6237693;22;20478;-68
2022/10/01 11:24:07;;;;;;;1.27;1.27;;;13.30;99.90;;;;;;6239655;23;20427;-70
2022/10/01 11:26:40;;;;;;;1.10;1.10;;;13.30;99.90;;;;;;6242125;23;20416;-68
2022/10/01 11:29:24;;;;;;;1.77;1.67;;;13.40;99.90;;;;;;6243197;23;20730;-68
2022/10/01 11:32:01;;;;;;;1.87;1.77;;;13.50;99.90;;;;;;6241686;22;20451;-68
2022/10/01 11:34:51;;;;;;;3.03;2.00;;;13.60;99.90;;;;;;6242867;23;20431;-68
2022/10/01 11:37:31;;;;;;;7.23;2.43;;;13.70;99.90;;;;;;6242542;23;20403;-65
2022/10/01 11:40:03;;;;;;;1.87;1.87;;;13.80;99.90;;;;;;6243142;23;20409;-67
2022/10/01 11:42:34;;;;;;;2.17;1.97;;;13.80;99.90;;;;;;6243816;22;20439;-67
2022/10/01 11:45:09;;;;;;;2.23;2.20;;;14.00;99.90;;;;;;6243832;23;20400;-66
2022/10/01 11:47:40;;;;;;;1.13;1.13;;;14.10;99.90;;;;;;6243616;23;20413;-66
2022/10/01 11:50:15;;;;;;;1.43;1.43;;;14.10;99.90;;;;;;6243310;23;20426;-67
2022/10/01 11:52:47;;;;;;;2.40;2.30;;;14.30;99.90;;;;;;6241786;23;20407;-66
2022/10/01 12:01:05;;;;;;;1.90;1.80;;;14.70;99.90;;;;;;6242419;22;20487;-66
2022/10/01 12:03:36;;;;;;;3.23;2.27;;;14.90;99.90;;;;;;6241324;23;20802;-66
2022/10/01 12:06:08;;;;;;;1.93;1.73;;;15.00;99.90;;;;;;6241064;23;20715;-66
2022/10/01 12:08:36;;;;;;;2.17;2.17;;;15.10;99.90;;;;;;6242221;23;20499;-66
2022/10/01 12:11:10;;;;;;;1.67;1.67;;;15.20;99.90;;;;;;6242187;22;20445;-67
2022/10/01 12:13:41;;;;;;;2.67;2.43;;;15.20;99.90;;;;;;6242428;23;20438;-66
2022/10/01 12:16:18;;;;;;;2.03;2.03;;;15.30;99.90;;;;;;6242006;23;20430;-66
2022/10/01 12:18:53;;;;;;;3.50;1.60;;;15.20;99.90;;;;;;6242540;23;20412;-64
2022/10/01 12:21:23;;;;;;;3.00;2.90;;;15.20;99.90;;;;;;6241743;22;20768;-66
2022/10/01 12:23:54;;;;;;;7.50;2.13;;;15.20;99.90;;;;;;6241416;23;20422;-65
2022/10/01 12:26:33;;;;;;;1.77;1.77;;;15.20;99.90;;;;;;6241316;23;20871;-66
2022/10/01 12:29:09;;;;;;;1.40;1.40;;;15.30;99.90;;;;;;6242756;23;20408;-69
2022/10/01 12:31:46;;;;;;;5.20;2.07;;;15.30;99.90;;;;;;6241248;22;20447;-66
2022/10/01 12:34:23;;;;;;;1.60;1.60;;;15.30;99.90;;;;;;6240980;23;20439;-67
2022/10/01 12:37:04;;;;;;;1.73;1.73;;;15.40;99.90;;;;;;6242074;23;20486;-68
2022/10/01 12:39:43;;;;;;;2.40;1.80;;;15.50;99.90;;;;;;6242929;23;20447;-67
2022/10/01 12:42:30;;;;;;;1.43;1.33;;;15.40;99.90;;;;;;6241614;22;20442;-67
2022/10/01 12:45:11;;;;;;;1.53;1.53;;;15.40;99.90;;;;;;6241888;23;20459;-66
2022/10/01 12:47:47;;;;;;;1.40;1.40;;;15.50;99.90;;;;;;6241958;23;20404;-66
2022/10/01 12:50:25;;;;;;;2.20;1.97;;;15.50;99.90;;;;;;6242661;23;20405;-67
2022/10/01 12:53:05;;;;;;;8.33;1.43;;;15.60;99.90;;;;;;6242152;23;20411;-63
2022/10/01 12:55:51;;;;;;;2.53;2.40;;;15.60;99.90;;;;;;6241937;23;20428;-67
2022/10/01 12:58:33;;;;;;;1.30;1.30;;;15.70;99.90;;;;;;6242568;23;20414;-68
2022/10/01 13:01:06;;;;;;;1.37;1.37;;;15.60;99.90;;;;;;6240635;22;20458;-65
2022/10/01 13:03:52;;;;;;;1.50;1.40;;;15.60;99.90;;;;;;6241370;23;20409;-65
2022/10/01 13:06:29;;;;;;;2.20;2.20;;;15.70;99.90;;;;;;6242257;23;20409;-65
2022/10/01 13:09:05;;;;;;;1.30;1.30;;;15.80;99.90;;;;;;6241966;23;20409;-70
2022/10/01 13:11:52;;;;;;;1.53;1.53;;;15.90;99.90;;;;;;6242819;22;20463;-69
2022/10/01 13:14:21;;;;;;;1.80;1.50;;;16.00;99.90;;;;;;6243048;23;20405;-71
2022/10/01 13:16:54;;;;;;;1.33;1.23;;;16.10;99.90;;;;;;6251932;23;20425;-70
2022/10/01 13:19:30;;;;;;;2.67;2.57;;;16.30;99.90;;;;;;6241669;23;20405;-69
2022/10/01 13:22:07;;;;;;;1.00;1.00;;;16.30;99.90;;;;;;6242270;22;20452;-69
2022/10/01 13:24:40;;;;;;;2.00;1.90;;;16.30;99.90;;;;;;6241680;23;20400;-69
2022/10/01 13:27:12;;;;;;;1.53;1.47;;;16.30;99.90;;;;;;6241917;23;20404;-68
2022/10/01 13:29:48;;;;;;;1.13;1.13;;;16.30;99.90;;;;;;6241922;23;20404;-69
2022/10/01 13:32:27;;;;;;;1.47;1.47;;;16.20;99.90;;;;;;6241648;22;20519;-68
2022/10/01 13:34:57;;;;;;;2.80;1.63;;;16.20;99.90;;;;;;6241458;23;20440;-69
2022/10/01 13:37:38;;;;;;;3.70;1.40;;;16.20;99.90;;;;;;6241969;23;20423;-69
2022/10/01 13:40:22;;;;;;;0.87;0.87;;;16.00;99.90;;;;;;6242589;23;20425;-68
2022/10/01 13:42:51;;;;;;;2.63;1.10;;;15.90;99.90;;;;;;6241795;23;20716;-69
2022/10/01 13:45:25;;;;;;;1.07;1.07;;;15.90;99.90;;;;;;6241728;23;20427;-68
2022/10/01 13:47:52;;;;;;;0.93;0.93;;;15.80;99.90;;;;;;6241311;23;20877;-69
2022/10/01 13:50:23;;;;;;;0.80;0.80;;;15.70;99.90;;;;;;6241879;22;20756;-69
2022/10/01 13:52:51;;;;;;;1.57;1.57;;;15.70;99.90;;;;;;6240843;23;20415;-69
2022/10/01 13:55:27;;;;;;;2.00;1.90;;;15.60;99.90;;;;;;6242068;23;20444;-70
2022/10/01 13:58:02;;;;;;;1.80;1.70;;;15.50;99.90;;;;;;6242523;23;20405;-68
2022/10/01 14:00:29;;;;;;;1.60;1.60;;;15.40;99.90;;;;;;6241416;22;20418;-69
2022/10/01 14:03:03;;;;;;;2.40;2.30;;;15.40;99.90;;;;;;6241548;23;20419;-68
2022/10/01 14:05:36;;;;;;;1.27;1.27;;;15.30;99.90;;;;;;6241684;23;20404;-68
2022/10/01 14:08:16;;;;;;;1.33;1.33;;;15.20;99.90;;;;;;6242187;23;20738;-69
2022/10/01 14:16:26;;;;;;;0.93;0.93;;;14.70;99.90;;;;;;6241617;23;20454;-70
2022/10/01 14:18:53;;;;;;;2.43;1.00;;;14.50;99.90;;;;;;6241877;23;20445;-69
2022/10/01 14:21:46;;;;;;;1.33;0.60;;;14.30;99.90;;;;;;6242186;22;20626;-69
2022/10/01 14:24:24;;;;;;;0.90;0.90;;;13.90;99.90;;;;;;6243777;23;20464;-69
2022/10/01 14:26:53;;;;;;;1.10;1.10;;;13.60;99.90;;;;;;6256123;23;20885;-69
2022/10/01 14:29:35;;;;;;;0.70;0.70;;;13.50;99.90;;;;;;6253859;23;20947;-69
2022/10/01 14:32:10;;;;;;;0.93;0.93;;;13.30;99.90;;;;;;6255545;22;20545;-69
2022/10/01 14:34:45;;;;;;;1.40;1.27;;;13.30;99.90;;;;;;6252530;23;20409;-69
2022/10/01 14:37:17;;;;;;;1.13;1.13;;;13.30;99.90;;;;;;6254179;23;20422;-69
2022/10/01 14:39:44;;;;;;;1.07;1.07;;;13.50;99.90;;;;;;6255221;23;20403;-70
2022/10/01 14:42:15;;;;;;;0.83;0.83;;;13.70;99.90;;;;;;6260354;22;20461;-69
2022/10/01 14:44:44;;;;;;;2.43;1.40;;;13.80;99.90;;;;;;6259881;23;20404;-70
2022/10/01 14:47:19;;;;;;;1.27;1.17;;;13.90;99.90;;;;;;6259829;23;20685;-69
2022/10/01 14:49:46;;;;;;;2.50;0.87;;;13.90;99.90;;;;;;6256412;23;20417;-70
2022/10/01 14:52:24;;;;;;;0.70;0.70;;;13.80;99.90;;;;;;6244368;22;20455;-70
2022/10/01 14:54:58;;;;;;;0.67;0.67;;;13.60;99.90;;;;;;6242846;23;20420;-69
2022/10/01 14:57:30;;;;;;;3.70;0.77;;;13.60;99.90;;;;;;6243315;23;20427;-69
2022/10/01 14:59:58;;;;;;;0.80;0.80;;;13.60;99.90;;;;;;6242852;23;20414;-69
2022/10/01 15:02:26;;;;;;;0.60;0.60;;;13.70;99.90;;;;;;6242892;22;21018;-69
2022/10/01 15:04:55;;;;;;;1.87;0.67;;;13.80;99.90;;;;;;6242434;23;20431;-69
2022/10/01 15:07:24;;;;;;;0.67;0.67;;;13.80;99.90;;;;;;6243648;23;20935;-69
2022/10/01 15:09:51;;;;;;;0.50;0.50;;;13.80;99.90;;;;;;6241394;23;20450;-69
2022/10/01 15:12:21;;;;;;;0.70;0.70;;;13.80;99.90;;;;;;6243441;22;20449;-69
2022/10/01 15:14:53;;;;;;;1.40;1.40;;;13.70;99.90;;;;;;6242655;23;20411;-69
2022/10/01 15:17:23;;;;;;;0.93;0.90;;;13.80;99.90;;;;;;6243676;23;20433;-68
2022/10/01 15:19:52;;;;;;;0.53;0.53;;;13.70;99.90;;;;;;6242512;23;20777;-69
2022/10/01 15:22:23;;;;;;;0.90;0.90;;;13.70;99.90;;;;;;6243389;22;20437;-69
2022/10/01 15:24:55;;;;;;;1.20;1.20;;;13.60;99.90;;;;;;6242647;23;20435;-68
2022/10/01 15:27:23;;;;;;;0.83;0.83;;;13.60;99.90;;;;;;6243499;23;20502;-69
2022/10/01 15:29:52;;;;;;;0.77;0.77;;;13.60;99.90;;;;;;6242282;23;20526;-69
2022/10/01 15:32:22;;;;;;;1.00;1.00;;;13.60;99.90;;;;;;6243314;22;20438;-69
2022/10/01 15:34:51;;;;;;;0.70;0.70;;;13.60;99.90;;;;;;6244070;23;20499;-69
2022/10/01 15:37:21;;;;;;;3.30;0.50;;;13.50;99.90;;;;;;6243164;23;20533;-69
2022/10/01 15:39:50;;;;;;;2.00;2.00;;;13.50;99.90;;;;;;6241097;23;20418;-69
2022/10/01 15:42:25;;;;;;;0.77;0.77;;;13.50;99.90;;;;;;6242818;22;20550;-69
2022/10/01 15:45:21;;;;;;;1.20;1.17;;;13.50;99.90;;;;;;6240932;23;20784;-69
2022/10/01 15:47:50;;;;;;;0.93;0.93;;;13.50;99.90;;;;;;6242821;23;20901;-69
2022/10/01 15:50:19;;;;;;;1.00;1.00;;;13.50;99.90;;;;;;6241944;22;20429;-69
2022/10/01 15:52:50;;;;;;;1.50;1.20;;;13.40;99.90;;;;;;6241857;23;20508;-69
2022/10/01 15:55:20;;;;;;;0.80;0.80;;;13.40;99.90;;;;;;6242261;23;20435;-68
2022/10/01 15:57:49;;;;;;;0.43;0.43;;;13.40;99.90;;;;;;6242698;23;20430;-68
2022/10/01 16:00:24;;;;;;;0.50;0.50;;;13.30;99.90;;;;;;6242455;22;20448;-68
2022/10/01 16:02:52;;;;;;;1.27;0.97;;;13.20;99.90;;;;;;6242428;23;20879;-69
2022/10/01 16:05:22;;;;;;;4.33;0.80;;;13.20;99.90;;;;;;6243117;23;20896;-69
2022/10/01 16:07:55;;;;;;;5.07;1.73;;;13.20;99.90;;;;;;6242335;23;20410;-68
2022/10/01 16:10:34;;;;;;;2.00;1.27;;;13.10;99.90;;;;;;6241783;22;20486;-68
2022/10/01 16:13:38;;;;;;;0.77;0.77;;;13.20;99.90;;;;;;6241490;23;20712;-69
2022/10/01 16:16:24;;;;;;;1.27;1.20;;;13.20;99.90;;;;;;6242504;23;20430;-69
2022/10/01 16:18:57;;;;;;;1.13;0.60;;;13.10;99.90;;;;;;6242110;23;20705;-68
2022/10/01 16:21:25;;;;;;;2.20;0.77;;;13.10;99.90;;;;;;6242230;22;20816;-68
2022/10/01 16:23:53;;;;;;;1.00;1.00;;;13.00;99.90;;;;;;6240511;23;20506;-68
2022/10/01 16:26:36;;;;;;;8.03;1.47;;;13.00;99.90;;;;;;6241929;23;20425;-68
2022/10/01 16:29:20;;;;;;;0.60;0.60;;;13.00;99.90;;;;;;6241416;23;20451;-68
2022/10/01 16:31:47;;;;;;;1.20;1.20;;;12.90;99.90;;;;;;6236781;22;20443;-68
2022/10/01 16:34:17;;;;;;;2.13;2.03;;;12.90;99.90;;;;;;6239508;23;20428;-70
2022/10/01 16:36:44;;;;;;;1.77;1.77;;;12.90;99.90;;;;;;6241756;23;20458;-69
2022/10/01 16:39:12;;;;;;;4.23;1.50;;;12.80;99.90;;;;;;6240860;23;20422;-69
2022/10/01 16:41:40;;;;;;;1.67;1.57;;;12.80;99.90;;;;;;6242503;22;20524;-69
2022/10/01 16:44:12;;;;;;;2.90;2.70;;;12.70;99.90;;;;;;6241335;23;20803;-69
2022/10/01 16:46:39;;;;;;;1.50;1.50;;;12.70;99.90;;;;;;6242295;23;20403;-69
2022/10/01 16:49:11;;;;;;;1.23;1.20;;;12.70;99.90;;;;;;6241785;23;20844;-70
2022/10/01 16:51:39;;;;;;;1.93;1.83;;;12.60;99.90;;;;;;6242437;22;20448;-70
2022/10/01 16:54:06;;;;;;;3.10;1.10;;;12.60;99.90;;;;;;6241072;23;20506;-69
2022/10/01 16:56:33;;;;;;;3.03;1.70;;;12.60;99.90;;;;;;6241692;23;20565;-69
2022/10/01 16:58:59;;;;;;;2.87;2.20;;;12.60;99.90;;;;;;6242146;23;20421;-70
2022/10/01 17:01:28;;;;;;;5.20;3.70;;;12.60;99.90;;;;;;6240900;22;20449;-69
2022/10/01 17:03:55;;;;;;;2.63;2.43;;;12.60;99.90;;;;;;6240555;23;20428;-67
2022/10/01 17:06:22;;;;;;;1.47;1.33;;;12.60;99.90;;;;;;6242044;23;20417;-68
2022/10/01 17:08:48;;;;;;;2.93;2.03;;;12.60;99.90;;;;;;6242161;23;20446;-70
2022/10/01 17:11:15;;;;;;;1.70;1.60;;;12.60;99.90;;;;;;6239054;22;21073;-70
2022/10/01 17:13:42;;;;;;;2.00;1.20;;;12.60;99.90;;;;;;6240770;23;20425;-69
2022/10/01 17:16:09;;;;;;;6.43;1.37;;;12.70;99.90;;;;;;6240744;23;20772;-69
2022/10/01 17:18:37;;;;;;;1.43;0.60;;;12.70;99.90;;;;;;6240229;23;20453;-69
2022/10/01 17:21:05;;;;;;;2.00;0.97;;;12.70;99.90;;;;;;6241562;22;20487;-68
2022/10/01 17:23:33;;;;;;;0.90;0.90;;;12.80;99.90;;;;;;6241679;23;20489;-69